createdAt,value
2018-07-25T00:01:00.841Z,52.10
2018-07-25T00:02:17.653Z,52.00
2018-07-25T00:03:34.408Z,52.10
2018-07-25T00:04:51.325Z,52.00
2018-07-25T00:06:08.362Z,52.00
2018-07-25T00:07:26.080Z,51.80
2018-07-25T00:08:42.759Z,51.90
2018-07-25T00:09:59.853Z,51.90
2018-07-25T00:11:17.026Z,52.00
2018-07-25T00:12:33.633Z,52.10
2018-07-25T00:13:50.700Z,52.90
2018-07-25T00:15:07.492Z,52.10
2018-07-25T00:16:24.387Z,52.10
2018-07-25T00:17:41.644Z,52.10
2018-07-25T00:20:15.329Z,52.10
2018-07-25T00:22:48.424Z,53.40
2018-07-25T00:24:05.357Z,53.20
2018-07-25T00:25:22.093Z,53.20
2018-07-25T00:26:38.956Z,53.20
2018-07-25T00:27:55.729Z,53.10
2018-07-25T00:29:13.055Z,53.10
2018-07-25T00:30:30.427Z,53.20
2018-07-25T00:31:47.489Z,53.30
2018-07-25T00:33:04.906Z,53.30
2018-07-25T00:35:38.293Z,52.80
2018-07-25T00:36:55.417Z,52.70
2018-07-25T00:38:12.046Z,53.30
2018-07-25T00:39:29.141Z,53.20
2018-07-25T00:40:45.676Z,53.10
2018-07-25T00:42:02.660Z,53.10
2018-07-25T00:43:19.360Z,53.00
2018-07-25T00:44:36.116Z,53.70
2018-07-25T00:45:52.828Z,53.00
2018-07-25T00:47:09.432Z,53.10
2018-07-25T00:48:26.172Z,53.00
2018-07-25T00:49:43.041Z,53.00
2018-07-25T00:51:00.232Z,53.30
2018-07-25T00:52:17.261Z,53.80
2018-07-25T00:53:34.097Z,54.20
2018-07-25T00:54:51.756Z,54.40
2018-07-25T00:56:08.520Z,54.60
2018-07-25T00:57:25.339Z,54.60
2018-07-25T00:58:42.152Z,54.70
2018-07-25T00:59:59.004Z,55.10
2018-07-25T01:01:16.192Z,55.60
2018-07-25T01:02:33.016Z,55.50
2018-07-25T01:03:49.976Z,55.60
2018-07-25T01:05:06.940Z,55.40
2018-07-25T01:06:23.912Z,55.10
2018-07-25T01:07:40.702Z,54.70
2018-07-25T01:08:57.657Z,55.00
2018-07-25T01:10:14.898Z,54.00
2018-07-25T01:11:32.476Z,53.80
2018-07-25T01:12:49.737Z,53.60
2018-07-25T01:14:06.863Z,53.30
2018-07-25T01:15:23.930Z,53.10
2018-07-25T01:16:41.069Z,53.10
2018-07-25T01:17:58.571Z,53.20
2018-07-25T01:19:15.709Z,53.10
2018-07-25T01:20:33.076Z,53.50
2018-07-25T01:21:50.017Z,54.00
2018-07-25T01:23:06.951Z,54.10
2018-07-25T01:24:24.440Z,54.10
2018-07-25T01:25:41.026Z,54.10
2018-07-25T01:26:57.692Z,54.20
2018-07-25T01:28:14.274Z,54.30
2018-07-25T01:29:31.148Z,55.10
2018-07-25T01:30:47.804Z,54.50
2018-07-25T01:32:04.698Z,54.70
2018-07-25T01:33:21.790Z,54.80
2018-07-25T01:34:38.584Z,54.60
2018-07-25T01:35:55.461Z,54.20
2018-07-25T01:37:12.012Z,54.10
2018-07-25T01:38:28.889Z,54.00
2018-07-25T01:39:45.942Z,53.70
2018-07-25T01:41:02.604Z,53.60
2018-07-25T01:42:19.405Z,54.30
2018-07-25T01:43:35.977Z,54.40
2018-07-25T01:44:52.983Z,53.90
2018-07-25T01:46:09.777Z,54.00
2018-07-25T01:47:26.725Z,53.90
2018-07-25T01:48:43.564Z,53.90
2018-07-25T01:50:00.298Z,53.80
2018-07-25T01:51:17.180Z,54.00
2018-07-25T01:53:50.664Z,54.80
2018-07-25T01:55:08.160Z,55.20
2018-07-25T01:56:25.377Z,55.40
2018-07-25T01:57:42.207Z,56.20
2018-07-25T01:58:58.803Z,55.60
2018-07-25T02:00:15.828Z,55.30
2018-07-25T02:01:32.581Z,55.00
2018-07-25T02:02:49.218Z,54.80
2018-07-25T02:04:06.080Z,54.40
2018-07-25T02:05:23.171Z,54.20
2018-07-25T02:06:40.016Z,54.10
2018-07-25T02:07:56.957Z,54.30
2018-07-25T02:09:13.942Z,54.50
2018-07-25T02:10:30.645Z,54.00
2018-07-25T02:11:47.507Z,54.90
2018-07-25T02:13:04.385Z,54.90
2018-07-25T02:14:21.264Z,54.70
2018-07-25T02:15:38.168Z,54.60
2018-07-25T02:16:54.892Z,54.60
2018-07-25T02:18:11.608Z,54.30
2018-07-25T02:19:28.449Z,54.30
2018-07-25T02:20:45.993Z,54.20
2018-07-25T02:22:02.664Z,54.20
2018-07-25T02:23:19.577Z,54.20
2018-07-25T02:24:36.633Z,54.30
2018-07-25T02:25:54.509Z,54.40
2018-07-25T02:27:11.336Z,54.60
2018-07-25T02:28:28.272Z,54.70
2018-07-25T02:29:44.838Z,54.70
2018-07-25T02:31:01.673Z,54.80
2018-07-25T02:32:18.410Z,55.60
2018-07-25T02:33:40.865Z,55.10
2018-07-25T02:34:58.325Z,55.00
2018-07-25T02:36:15.183Z,54.90
2018-07-25T02:37:31.797Z,54.60
2018-07-25T02:38:48.644Z,54.70
2018-07-25T02:40:05.329Z,55.10
2018-07-25T02:41:22.230Z,55.50
2018-07-25T02:42:38.958Z,55.50
2018-07-25T02:43:56.652Z,55.70
2018-07-25T02:45:14.019Z,56.40
2018-07-25T02:46:30.611Z,56.00
2018-07-25T02:47:47.982Z,56.30
2018-07-25T02:49:04.525Z,56.50
2018-07-25T02:50:21.449Z,56.50
2018-07-25T02:51:38.513Z,56.50
2018-07-25T02:52:55.076Z,55.80
2018-07-25T02:54:11.601Z,56.90
2018-07-25T02:55:28.242Z,56.20
2018-07-25T02:56:45.160Z,56.10
2018-07-25T02:58:02.170Z,55.90
2018-07-25T02:59:18.717Z,55.60
2018-07-25T03:00:35.760Z,56.00
2018-07-25T03:01:52.481Z,56.40
2018-07-25T03:03:09.415Z,55.80
2018-07-25T03:04:26.210Z,56.30
2018-07-25T03:05:43.087Z,56.40
2018-07-25T03:06:59.837Z,56.40
2018-07-25T03:08:16.549Z,56.20
2018-07-25T03:09:33.125Z,56.00
2018-07-25T03:10:54.428Z,56.00
2018-07-25T03:12:11.932Z,55.80
2018-07-25T03:13:28.500Z,56.00
2018-07-25T03:14:45.457Z,55.50
2018-07-25T03:16:09.917Z,55.60
2018-07-25T03:17:27.093Z,55.90
2018-07-25T03:18:44.545Z,55.80
2018-07-25T03:20:01.339Z,55.10
2018-07-25T03:21:18.454Z,54.90
2018-07-25T03:22:35.389Z,54.90
2018-07-25T03:23:52.093Z,54.90
2018-07-25T03:25:08.852Z,54.00
2018-07-25T03:26:25.616Z,54.60
2018-07-25T03:27:42.516Z,54.60
2018-07-25T03:28:59.146Z,54.60
2018-07-25T03:30:16.293Z,54.60
2018-07-25T03:31:33.154Z,54.60
2018-07-25T03:32:50.702Z,54.50
2018-07-25T03:34:07.352Z,55.50
2018-07-25T03:35:23.948Z,54.40
2018-07-25T03:36:40.776Z,54.50
2018-07-25T03:37:57.719Z,54.20
2018-07-25T03:39:14.680Z,53.80
2018-07-25T03:40:31.173Z,53.00
2018-07-25T03:41:48.100Z,52.80
2018-07-25T03:43:04.721Z,52.80
2018-07-25T03:44:22.170Z,52.80
2018-07-25T03:45:38.865Z,52.80
2018-07-25T03:46:55.805Z,52.80
2018-07-25T03:48:12.940Z,53.00
2018-07-25T03:49:29.673Z,53.30
2018-07-25T03:50:46.620Z,53.00
2018-07-25T03:52:03.505Z,52.80
2018-07-25T03:53:20.448Z,52.80
2018-07-25T03:54:37.128Z,52.80
2018-07-25T03:55:53.836Z,52.80
2018-07-25T03:57:10.655Z,52.80
2018-07-25T03:58:27.533Z,52.80
2018-07-25T03:59:44.224Z,52.80
2018-07-25T04:01:01.060Z,52.80
2018-07-25T04:02:18.734Z,52.80
2018-07-25T04:03:36.289Z,52.80
2018-07-25T04:04:53.079Z,53.40
2018-07-25T04:06:10.003Z,52.80
2018-07-25T04:07:26.836Z,52.80
2018-07-25T04:08:43.354Z,52.80
2018-07-25T04:10:00.461Z,53.20
2018-07-25T04:11:17.359Z,52.80
2018-07-25T04:12:34.904Z,52.80
2018-07-25T04:15:08.498Z,52.80
2018-07-25T04:16:25.279Z,52.80
2018-07-25T04:17:49.281Z,52.50
2018-07-25T04:19:06.782Z,52.80
2018-07-25T04:20:24.476Z,52.80
2018-07-25T04:21:41.912Z,52.80
2018-07-25T04:22:58.940Z,52.50
2018-07-25T04:24:15.953Z,52.80
2018-07-25T04:25:33.384Z,52.80
2018-07-25T04:26:50.337Z,52.80
2018-07-25T04:28:07.168Z,53.10
2018-07-25T04:29:23.589Z,52.70
2018-07-25T04:30:40.529Z,53.30
2018-07-25T04:33:14.572Z,52.70
2018-07-25T04:34:31.581Z,52.70
2018-07-25T04:35:48.669Z,52.70
2018-07-25T04:37:05.660Z,52.80
2018-07-25T04:38:22.792Z,52.70
2018-07-25T04:39:40.361Z,53.40
2018-07-25T04:40:57.269Z,52.70
2018-07-25T04:42:14.272Z,52.80
2018-07-25T04:43:31.153Z,52.80
2018-07-25T04:44:47.924Z,53.20
2018-07-25T04:46:04.632Z,52.70
2018-07-25T04:47:21.790Z,52.70
2018-07-25T04:48:39.443Z,52.80
2018-07-25T04:49:56.206Z,52.70
2018-07-25T04:51:12.981Z,52.60
2018-07-25T04:52:29.731Z,53.20
2018-07-25T04:53:47.034Z,52.80
2018-07-25T04:55:04.432Z,52.80
2018-07-25T04:56:21.348Z,52.80
2018-07-25T04:57:38.379Z,52.00
2018-07-25T04:58:56.836Z,52.50
2018-07-25T05:00:14.068Z,52.00
2018-07-25T05:01:31.449Z,51.80
2018-07-25T05:02:48.216Z,51.90
2018-07-25T05:05:22.048Z,52.10
2018-07-25T05:06:38.565Z,52.30
2018-07-25T05:07:55.370Z,52.80
2018-07-25T05:09:12.238Z,52.80
2018-07-25T05:10:28.937Z,52.80
2018-07-25T05:13:02.299Z,53.00
2018-07-25T05:14:18.771Z,52.00
2018-07-25T05:15:35.724Z,52.00
2018-07-25T05:16:52.605Z,51.80
2018-07-25T05:18:10.068Z,51.90
2018-07-25T05:20:43.523Z,52.10
2018-07-25T05:23:17.634Z,52.50
2018-07-25T05:24:34.543Z,52.40
2018-07-25T05:25:51.304Z,52.20
2018-07-25T05:27:07.964Z,51.70
2018-07-25T05:29:42.298Z,51.40
2018-07-25T05:30:59.384Z,51.20
2018-07-25T05:32:16.014Z,51.20
2018-07-25T05:33:32.594Z,51.00
2018-07-25T05:34:49.654Z,51.00
2018-07-25T05:36:06.548Z,51.10
2018-07-25T05:37:24.372Z,51.10
2018-07-25T05:38:42.021Z,51.10
2018-07-25T05:39:58.740Z,51.20
2018-07-25T05:41:15.915Z,51.40
2018-07-25T05:42:32.756Z,51.30
2018-07-25T05:43:49.375Z,51.10
2018-07-25T05:45:06.521Z,51.10
2018-07-25T05:46:23.865Z,51.20
2018-07-25T05:47:40.765Z,51.00
2018-07-25T05:48:57.573Z,51.60
2018-07-25T05:50:14.392Z,51.00
2018-07-25T05:51:31.117Z,51.00
2018-07-25T05:52:47.945Z,51.00
2018-07-25T05:54:05.194Z,50.90
2018-07-25T05:55:22.377Z,51.30
2018-07-25T05:56:39.433Z,50.90
2018-07-25T05:57:56.124Z,50.90
2018-07-25T05:59:13.169Z,51.00
2018-07-25T06:00:29.973Z,51.00
2018-07-25T06:01:46.442Z,51.00
2018-07-25T06:03:03.619Z,51.10
2018-07-25T06:04:20.056Z,51.10
2018-07-25T06:05:37.052Z,51.30
2018-07-25T06:06:53.821Z,51.40
2018-07-25T06:08:10.897Z,51.50
2018-07-25T06:09:27.465Z,51.00
2018-07-25T06:10:44.560Z,51.70
2018-07-25T06:12:01.873Z,51.00
2018-07-25T06:13:18.773Z,50.80
2018-07-25T06:14:35.830Z,50.80
2018-07-25T06:15:52.776Z,51.20
2018-07-25T06:17:10.565Z,51.20
2018-07-25T06:18:28.108Z,51.30
2018-07-25T06:19:44.712Z,51.10
2018-07-25T06:21:01.632Z,51.00
2018-07-25T06:22:18.324Z,51.10
2018-07-25T06:23:35.073Z,51.30
2018-07-25T06:24:52.016Z,51.30
2018-07-25T06:26:08.777Z,51.10
2018-07-25T06:28:42.112Z,51.00
2018-07-25T06:31:15.836Z,51.50
2018-07-25T06:32:32.796Z,51.20
2018-07-25T06:33:49.504Z,51.10
2018-07-25T06:35:06.427Z,51.40
2018-07-25T06:36:23.220Z,51.40
2018-07-25T06:37:39.928Z,51.50
2018-07-25T06:38:56.815Z,51.30
2018-07-25T06:40:13.593Z,51.30
2018-07-25T06:41:30.183Z,51.40
2018-07-25T06:42:46.982Z,52.00
2018-07-25T06:44:03.967Z,51.00
2018-07-25T06:45:20.728Z,51.40
2018-07-25T06:46:38.156Z,51.40
2018-07-25T06:47:54.851Z,51.60
2018-07-25T06:49:12.920Z,51.40
2018-07-25T06:50:29.664Z,51.60
2018-07-25T06:51:46.445Z,50.80
2018-07-25T06:53:03.268Z,51.40
2018-07-25T06:54:20.732Z,51.50
2018-07-25T06:55:37.595Z,51.70
2018-07-25T06:56:54.160Z,51.70
2018-07-25T06:58:11.206Z,51.70
2018-07-25T06:59:28.019Z,51.80
2018-07-25T07:00:45.095Z,51.80
2018-07-25T07:02:02.728Z,52.70
2018-07-25T07:03:19.245Z,52.40
2018-07-25T07:04:35.995Z,52.90
2018-07-25T07:05:52.545Z,52.90
2018-07-25T07:07:09.345Z,53.60
2018-07-25T07:08:26.300Z,52.90
2018-07-25T07:09:43.125Z,52.90
2018-07-25T07:10:59.785Z,52.90
2018-07-25T07:12:16.917Z,52.90
2018-07-25T07:13:33.525Z,52.90
2018-07-25T07:14:50.810Z,52.90
2018-07-25T07:16:07.514Z,52.90
2018-07-25T07:17:25.063Z,52.80
2018-07-25T07:19:58.215Z,52.90
2018-07-25T07:21:15.025Z,52.30
2018-07-25T07:22:31.832Z,52.50
2018-07-25T07:23:48.543Z,52.20
2018-07-25T07:25:05.904Z,51.40
2018-07-25T07:26:23.253Z,51.80
2018-07-25T07:27:40.570Z,52.00
2018-07-25T07:28:57.881Z,52.00
2018-07-25T07:30:14.589Z,52.30
2018-07-25T07:31:31.573Z,51.90
2018-07-25T07:32:48.685Z,51.80
2018-07-25T07:34:05.531Z,51.80
2018-07-25T07:35:22.500Z,51.70
2018-07-25T07:36:39.211Z,51.70
2018-07-25T07:37:56.132Z,51.80
2018-07-25T07:39:14.025Z,51.50
2018-07-25T07:40:30.858Z,52.10
2018-07-25T07:41:47.776Z,51.40
2018-07-25T07:43:04.517Z,52.10
2018-07-25T07:44:21.230Z,51.30
2018-07-25T07:45:38.042Z,51.40
2018-07-25T07:46:55.042Z,51.40
2018-07-25T07:48:11.916Z,51.00
2018-07-25T07:49:29.475Z,51.30
2018-07-25T07:50:51.840Z,51.00
2018-07-25T07:52:08.885Z,51.10
2018-07-25T07:53:26.546Z,50.80
2018-07-25T07:54:44.437Z,50.80
2018-07-25T07:56:01.745Z,50.60
2018-07-25T07:58:35.453Z,50.60
2018-07-25T07:59:53.500Z,50.70
2018-07-25T08:01:11.541Z,50.60
2018-07-25T08:02:29.343Z,50.60
2018-07-25T08:03:47.590Z,50.50
2018-07-25T08:05:05.196Z,50.10
2018-07-25T08:06:22.656Z,50.70
2018-07-25T08:07:39.994Z,50.70
2018-07-25T08:08:57.169Z,50.70
2018-07-25T08:10:14.753Z,50.80
2018-07-25T08:11:32.514Z,50.80
2018-07-25T08:12:50.425Z,50.90
2018-07-25T08:14:08.170Z,50.80
2018-07-25T08:15:25.666Z,51.00
2018-07-25T08:16:44.041Z,51.10
2018-07-25T08:18:01.431Z,50.90
2018-07-25T08:19:17.882Z,51.90
2018-07-25T08:20:34.819Z,51.10
2018-07-25T08:21:51.700Z,51.10
2018-07-25T08:23:08.742Z,51.90
2018-07-25T08:24:25.732Z,51.30
2018-07-25T08:25:42.505Z,51.30
2018-07-25T08:26:59.491Z,52.00
2018-07-25T08:28:16.317Z,51.70
2018-07-25T08:29:33.255Z,51.70
2018-07-25T08:30:49.840Z,52.10
2018-07-25T08:32:06.919Z,52.20
2018-07-25T08:33:24.332Z,52.20
2018-07-25T08:34:41.304Z,51.80
2018-07-25T08:35:57.948Z,52.60
2018-07-25T08:37:15.176Z,52.60
2018-07-25T08:38:37.758Z,53.10
2018-07-25T08:39:54.692Z,53.20
2018-07-25T08:41:11.671Z,52.60
2018-07-25T08:42:28.647Z,52.30
2018-07-25T08:43:45.409Z,52.30
2018-07-25T08:45:02.120Z,52.30
2018-07-25T08:46:19.637Z,53.00
2018-07-25T08:47:36.725Z,52.80
2018-07-25T08:48:53.333Z,53.00
2018-07-25T08:50:10.648Z,53.30
2018-07-25T08:51:27.753Z,52.80
2018-07-25T08:52:45.073Z,52.80
2018-07-25T08:54:01.804Z,53.40
2018-07-25T08:55:19.548Z,53.50
2018-07-25T08:56:36.155Z,53.10
2018-07-25T08:57:53.350Z,52.90
2018-07-25T08:59:10.351Z,52.70
2018-07-25T09:00:27.026Z,52.30
2018-07-25T09:01:43.852Z,52.50
2018-07-25T09:03:00.796Z,52.50
2018-07-25T09:04:17.265Z,52.50
2018-07-25T09:05:34.494Z,52.40
2018-07-25T09:06:51.276Z,52.30
2018-07-25T09:08:08.724Z,52.30
2018-07-25T09:09:25.544Z,52.30
2018-07-25T09:10:42.383Z,52.40
2018-07-25T09:11:58.876Z,52.40
2018-07-25T09:13:15.673Z,52.40
2018-07-25T09:14:32.389Z,51.80
2018-07-25T09:15:49.204Z,52.20
2018-07-25T09:17:06.232Z,52.30
2018-07-25T09:18:23.121Z,52.30
2018-07-25T09:19:40.195Z,52.30
2018-07-25T09:20:57.601Z,52.20
2018-07-25T09:22:14.804Z,51.90
2018-07-25T09:23:31.775Z,51.70
2018-07-25T09:24:49.529Z,50.50
2018-07-25T09:26:06.617Z,50.00
2018-07-25T09:27:23.892Z,49.90
2018-07-25T09:28:40.899Z,49.80
2018-07-25T09:29:58.732Z,49.60
2018-07-25T09:31:16.065Z,49.80
2018-07-25T09:32:32.785Z,50.40
2018-07-25T09:33:49.997Z,50.00
2018-07-25T09:35:06.657Z,50.70
2018-07-25T09:36:24.680Z,50.00
2018-07-25T09:37:41.455Z,49.90
2018-07-25T09:38:58.980Z,49.90
2018-07-25T09:40:16.024Z,49.50
2018-07-25T09:41:33.681Z,48.40
2018-07-25T09:42:51.348Z,48.90
2018-07-25T09:44:08.322Z,48.50
2018-07-25T09:45:25.556Z,49.10
2018-07-25T09:46:43.510Z,49.10
2018-07-25T09:48:00.859Z,49.20
2018-07-25T09:49:18.860Z,49.20
2018-07-25T09:50:36.188Z,49.90
2018-07-25T09:51:53.147Z,49.30
2018-07-25T09:53:10.909Z,49.20
2018-07-25T09:54:28.696Z,49.30
2018-07-25T09:55:46.545Z,49.30
2018-07-25T09:57:04.031Z,50.10
2018-07-25T09:58:21.828Z,49.90
2018-07-25T09:59:38.608Z,49.20
2018-07-25T10:00:55.739Z,49.20
2018-07-25T10:02:13.521Z,49.20
2018-07-25T10:03:32.392Z,48.10
2018-07-25T10:04:49.640Z,48.10
2018-07-25T10:06:07.464Z,47.80
2018-07-25T10:07:25.058Z,47.60
2018-07-25T10:08:41.826Z,47.60
2018-07-25T10:09:58.951Z,47.20
2018-07-25T10:11:16.437Z,47.40
2018-07-25T10:12:33.253Z,47.50
2018-07-25T10:13:50.300Z,47.90
2018-07-25T10:15:07.741Z,47.60
2018-07-25T10:16:24.782Z,47.30
2018-07-25T10:17:42.483Z,47.40
2018-07-25T10:20:16.925Z,46.80
2018-07-25T10:21:33.811Z,47.30
2018-07-25T10:22:51.563Z,46.00
2018-07-25T10:24:14.785Z,45.80
2018-07-25T10:25:32.324Z,45.20
2018-07-25T10:26:49.691Z,44.60
2018-07-25T10:28:07.035Z,44.40
2018-07-25T10:29:24.155Z,45.40
2018-07-25T10:30:41.161Z,45.30
2018-07-25T10:31:57.847Z,45.00
2018-07-25T10:33:15.293Z,44.10
2018-07-25T10:34:33.453Z,44.50
2018-07-25T10:35:51.057Z,43.70
2018-07-25T10:37:08.593Z,44.10
2018-07-25T10:38:25.707Z,44.50
2018-07-25T10:39:43.498Z,43.00
2018-07-25T10:41:00.300Z,42.90
2018-07-25T10:42:17.066Z,43.30
2018-07-25T10:43:34.000Z,43.70
2018-07-25T10:44:52.477Z,43.20
2018-07-25T10:46:09.325Z,43.00
2018-07-25T10:47:26.142Z,43.00
2018-07-25T10:48:43.193Z,43.00
2018-07-25T10:50:00.630Z,42.70
2018-07-25T10:51:18.158Z,41.50
2018-07-25T10:52:35.290Z,41.20
2018-07-25T10:53:53.094Z,41.20
2018-07-25T10:55:10.525Z,40.80
2018-07-25T10:56:27.544Z,40.60
2018-07-25T10:57:45.229Z,40.60
2018-07-25T10:59:01.984Z,40.40
2018-07-25T11:00:18.728Z,39.70
2018-07-25T11:01:35.595Z,41.00
2018-07-25T11:02:52.694Z,40.30
2018-07-25T11:04:09.279Z,40.40
2018-07-25T11:05:26.544Z,40.50
2018-07-25T11:06:43.928Z,40.60
2018-07-25T11:08:00.969Z,40.10
2018-07-25T11:09:17.666Z,39.60
2018-07-25T11:10:34.605Z,39.30
2018-07-25T11:11:52.176Z,39.30
2018-07-25T11:13:08.977Z,39.20
2018-07-25T11:14:26.218Z,39.00
2018-07-25T11:15:43.938Z,39.50
2018-07-25T11:17:01.320Z,39.60
2018-07-25T11:18:18.341Z,40.20
2018-07-25T11:19:35.097Z,39.70
2018-07-25T11:20:51.729Z,39.60
2018-07-25T11:22:08.523Z,38.90
2018-07-25T11:23:25.641Z,39.50
2018-07-25T11:24:43.224Z,38.90
2018-07-25T11:26:00.461Z,39.20
2018-07-25T11:27:17.079Z,39.60
2018-07-25T11:28:34.321Z,39.20
2018-07-25T11:29:59.137Z,40.10
2018-07-25T11:31:16.753Z,40.40
2018-07-25T11:32:33.978Z,40.40
2018-07-25T11:35:08.421Z,41.10
2018-07-25T11:36:24.903Z,41.40
2018-07-25T11:39:02.639Z,42.00
2018-07-25T11:40:20.204Z,41.80
2018-07-25T11:41:38.273Z,42.00
2018-07-25T11:42:56.044Z,42.10
2018-07-25T11:44:13.614Z,42.30
2018-07-25T11:45:31.382Z,41.60
2018-07-25T11:46:48.134Z,40.90
2018-07-25T11:48:04.995Z,41.10
2018-07-25T11:49:21.772Z,40.80
2018-07-25T11:50:38.633Z,40.00
2018-07-25T11:51:55.335Z,40.30
2018-07-25T11:53:12.661Z,40.50
2018-07-25T11:54:30.363Z,40.00
2018-07-25T11:55:47.017Z,39.80
2018-07-25T11:57:04.037Z,39.20
2018-07-25T11:58:20.988Z,39.40
2018-07-25T11:59:37.788Z,39.50
2018-07-25T12:00:54.784Z,39.00
2018-07-25T12:02:11.685Z,39.80
2018-07-25T12:03:28.441Z,39.60
2018-07-25T12:04:45.281Z,38.60
2018-07-25T12:06:02.189Z,40.10
2018-07-25T12:07:37.088Z,38.80
2018-07-25T12:08:54.417Z,38.00
2018-07-25T12:10:11.934Z,38.90
2018-07-25T12:11:28.829Z,37.50
2018-07-25T12:12:46.067Z,37.80
2018-07-25T12:14:03.855Z,38.30
2018-07-25T12:15:20.956Z,37.20
2018-07-25T12:16:38.030Z,37.10
2018-07-25T12:17:55.095Z,36.40
2018-07-25T12:19:12.648Z,36.60
2018-07-25T12:20:29.331Z,36.20
2018-07-25T12:21:46.329Z,36.20
2018-07-25T12:23:03.138Z,36.10
2018-07-25T12:24:19.813Z,35.60
2018-07-25T12:25:36.657Z,36.10
2018-07-25T12:26:54.349Z,36.30
2018-07-25T12:28:11.529Z,36.70
2018-07-25T12:29:28.983Z,36.50
2018-07-25T12:30:46.037Z,36.40
2018-07-25T12:33:21.443Z,37.30
2018-07-25T12:34:38.217Z,38.00
2018-07-25T12:35:56.026Z,37.80
2018-07-25T12:37:17.533Z,37.10
2018-07-25T12:38:35.174Z,37.30
2018-07-25T12:39:53.066Z,37.70
2018-07-25T12:41:10.688Z,38.00
2018-07-25T12:42:27.432Z,37.80
2018-07-25T12:43:45.006Z,37.40
2018-07-25T12:45:02.019Z,37.80
2018-07-25T12:46:19.089Z,36.60
2018-07-25T12:47:36.566Z,36.10
2018-07-25T12:48:53.405Z,34.40
2018-07-25T12:50:10.552Z,35.10
2018-07-25T12:51:27.161Z,33.80
2018-07-25T12:52:44.258Z,34.20
2018-07-25T12:54:01.149Z,34.20
2018-07-25T12:55:17.713Z,32.70
2018-07-25T12:56:34.901Z,33.10
2018-07-25T12:57:51.679Z,33.00
2018-07-25T12:59:09.156Z,33.00
2018-07-25T13:00:26.065Z,33.10
2018-07-25T13:01:43.109Z,33.70
2018-07-25T13:03:00.489Z,34.00
2018-07-25T13:04:17.442Z,33.10
2018-07-25T13:05:34.448Z,32.60
2018-07-25T13:06:51.298Z,30.90
2018-07-25T13:08:08.804Z,30.40
2018-07-25T13:09:25.951Z,29.90
2018-07-25T13:10:43.230Z,32.00
2018-07-25T13:12:00.441Z,31.10
2018-07-25T13:13:17.938Z,30.90
2018-07-25T13:14:35.186Z,31.50
2018-07-25T13:15:52.411Z,31.50
2018-07-25T13:17:09.945Z,32.40
2018-07-25T13:18:26.846Z,31.50
2018-07-25T13:19:44.449Z,32.50
2018-07-25T13:21:01.356Z,32.60
2018-07-25T13:22:19.316Z,33.40
2018-07-25T13:23:36.928Z,33.00
2018-07-25T13:24:53.732Z,32.80
2018-07-25T13:26:11.232Z,33.10
2018-07-25T13:27:28.613Z,33.00
2018-07-25T13:28:46.151Z,33.70
2018-07-25T13:30:03.311Z,33.40
2018-07-25T13:31:20.228Z,33.50
2018-07-25T13:32:37.264Z,32.90
2018-07-25T13:33:54.098Z,33.20
2018-07-25T13:35:11.537Z,32.60
2018-07-25T13:36:28.664Z,32.90
2018-07-25T13:37:45.385Z,32.70
2018-07-25T13:39:02.213Z,32.80
2018-07-25T13:40:19.268Z,32.50
2018-07-25T13:41:36.800Z,32.30
2018-07-25T13:42:54.217Z,32.20
2018-07-25T13:44:11.728Z,32.40
2018-07-25T13:45:28.573Z,33.10
2018-07-25T13:46:45.106Z,33.20
2018-07-25T13:48:01.769Z,32.60
2018-07-25T13:49:18.780Z,32.90
2018-07-25T13:50:35.515Z,32.10
2018-07-25T13:51:52.694Z,31.60
2018-07-25T13:53:09.099Z,32.00
2018-07-25T13:55:42.515Z,32.50
2018-07-25T13:56:59.549Z,32.20
2018-07-25T13:58:16.521Z,31.90
2018-07-25T13:59:33.417Z,31.80
2018-07-25T14:00:50.300Z,32.30
2018-07-25T14:02:07.089Z,32.60
2018-07-25T14:03:24.348Z,32.20
2018-07-25T14:04:41.907Z,31.70
2018-07-25T14:05:58.845Z,30.90
2018-07-25T14:07:15.389Z,31.50
2018-07-25T14:08:32.285Z,31.70
2018-07-25T14:09:49.788Z,31.20
2018-07-25T14:11:06.493Z,31.20
2018-07-25T14:12:23.700Z,31.80
2018-07-25T14:13:40.474Z,32.40
2018-07-25T14:14:57.449Z,32.70
2018-07-25T14:16:14.865Z,32.50
2018-07-25T14:17:31.673Z,33.50
2018-07-25T14:18:48.619Z,32.90
2018-07-25T14:20:06.220Z,33.00
2018-07-25T14:21:22.965Z,32.90
2018-07-25T14:22:39.834Z,31.80
2018-07-25T14:23:57.112Z,32.00
2018-07-25T14:25:13.545Z,32.30
2018-07-25T14:26:30.568Z,32.70
2018-07-25T14:27:47.273Z,32.30
2018-07-25T14:29:04.123Z,32.40
2018-07-25T14:30:21.001Z,33.00
2018-07-25T14:31:37.609Z,32.50
2018-07-25T14:32:54.431Z,31.80
2018-07-25T14:34:11.887Z,32.20
2018-07-25T14:35:29.341Z,32.00
2018-07-25T14:36:46.165Z,32.10
2018-07-25T14:38:03.148Z,31.40
2018-07-25T14:39:20.047Z,31.40
2018-07-25T14:40:37.125Z,31.40
2018-07-25T14:41:53.764Z,31.20
2018-07-25T14:43:10.802Z,31.20
2018-07-25T14:44:28.157Z,30.70
2018-07-25T14:45:45.614Z,30.50
2018-07-25T14:47:03.582Z,30.90
2018-07-25T14:48:20.905Z,31.10
2018-07-25T14:49:37.754Z,31.80
2018-07-25T14:50:54.385Z,31.40
2018-07-25T14:52:11.561Z,31.60
2018-07-25T14:53:29.454Z,31.40
2018-07-25T14:54:46.935Z,31.70
2018-07-25T14:56:03.939Z,31.00
2018-07-25T14:57:21.614Z,30.90
2018-07-25T14:58:38.352Z,31.10
2018-07-25T14:59:55.273Z,30.70
2018-07-25T15:01:11.822Z,30.70
2018-07-25T15:02:28.686Z,30.50
2018-07-25T15:03:45.621Z,30.70
2018-07-25T15:05:02.310Z,30.30
2018-07-25T15:06:19.038Z,30.40
2018-07-25T15:07:35.847Z,31.10
2018-07-25T15:08:52.575Z,31.50
2018-07-25T15:10:09.283Z,31.00
2018-07-25T15:11:25.990Z,30.70
2018-07-25T15:12:47.205Z,30.60
2018-07-25T15:14:04.956Z,31.10
2018-07-25T15:15:21.627Z,31.00
2018-07-25T15:16:38.952Z,30.80
2018-07-25T15:17:56.356Z,31.20
2018-07-25T15:19:13.341Z,31.60
2018-07-25T15:20:30.386Z,31.70
2018-07-25T15:21:47.291Z,31.70
2018-07-25T15:23:04.293Z,33.10
2018-07-25T15:24:21.192Z,32.50
2018-07-25T15:25:38.173Z,32.40
2018-07-25T15:26:54.966Z,32.40
2018-07-25T15:28:12.166Z,32.60
2018-07-25T15:29:29.802Z,32.60
2018-07-25T15:30:46.312Z,33.30
2018-07-25T15:32:03.189Z,33.10
2018-07-25T15:33:20.032Z,33.70
2018-07-25T15:34:37.035Z,33.30
2018-07-25T15:35:54.373Z,33.30
2018-07-25T15:37:11.252Z,33.70
2018-07-25T15:39:44.622Z,33.60
2018-07-25T15:41:01.731Z,32.40
2018-07-25T15:42:18.582Z,33.30
2018-07-25T15:43:35.434Z,32.90
2018-07-25T15:44:52.097Z,31.60
2018-07-25T15:46:08.797Z,32.90
2018-07-25T15:47:25.795Z,33.70
2018-07-25T15:48:42.440Z,33.10
2018-07-25T15:49:59.148Z,33.60
2018-07-25T15:51:16.264Z,33.50
2018-07-25T15:52:33.134Z,33.60
2018-07-25T15:53:50.405Z,33.50
2018-07-25T15:55:07.815Z,33.50
2018-07-25T15:56:25.392Z,33.50
2018-07-25T15:57:42.837Z,33.50
2018-07-25T15:59:00.249Z,33.50
2018-07-25T16:00:17.952Z,33.40
2018-07-25T16:01:34.679Z,33.40
2018-07-25T16:02:51.560Z,33.40
2018-07-25T16:04:08.635Z,33.40
2018-07-25T16:05:25.565Z,34.20
2018-07-25T16:06:43.172Z,34.50
2018-07-25T16:08:00.224Z,34.00
2018-07-25T16:09:18.348Z,34.30
2018-07-25T16:10:35.611Z,34.20
2018-07-25T16:11:52.251Z,34.50
2018-07-25T16:13:10.020Z,34.60
2018-07-25T16:14:27.361Z,34.50
2018-07-25T16:15:44.840Z,34.70
2018-07-25T16:17:02.245Z,34.70
2018-07-25T16:18:19.958Z,34.80
2018-07-25T16:19:37.580Z,35.20
2018-07-25T16:20:54.855Z,34.70
2018-07-25T16:22:12.173Z,35.20
2018-07-25T16:24:45.722Z,34.90
2018-07-25T16:26:02.686Z,35.70
2018-07-25T16:27:19.419Z,34.90
2018-07-25T16:28:37.197Z,35.20
2018-07-25T16:29:54.262Z,34.70
2018-07-25T16:31:11.157Z,34.80
2018-07-25T16:32:28.721Z,36.00
2018-07-25T16:33:45.393Z,35.30
2018-07-25T16:35:03.453Z,35.30
2018-07-25T16:36:21.212Z,35.20
2018-07-25T16:37:39.001Z,35.20
2018-07-25T16:38:56.886Z,35.10
2018-07-25T16:40:14.209Z,35.10
2018-07-25T16:41:30.811Z,35.20
2018-07-25T16:44:04.925Z,35.30
2018-07-25T16:45:22.382Z,35.50
2018-07-25T16:46:39.152Z,35.70
2018-07-25T16:47:56.150Z,35.30
2018-07-25T16:49:13.384Z,35.00
2018-07-25T16:50:30.481Z,35.70
2018-07-25T16:51:47.473Z,35.70
2018-07-25T16:53:04.231Z,35.40
2018-07-25T16:54:21.717Z,35.50
2018-07-25T16:55:38.650Z,35.70
2018-07-25T16:56:56.322Z,35.20
2018-07-25T16:58:13.974Z,35.70
2018-07-25T16:59:30.904Z,35.70
2018-07-25T17:00:47.823Z,35.90
2018-07-25T17:02:04.681Z,36.10
2018-07-25T17:03:21.985Z,36.00